Time;durP1;ratioP1;P1;durP2;ratioP2;P2;SDS_P1;SDS_P2;PMS_P1;PMS_P2;Temp;Humidity;BMP_temperature;BMP_pressure;BME280_temperature;BME280_humidity;BME280_pressure;Samples;Min_cycle;Max_cycle;Signal;HPM_P1;HPM_P2
2021/03/10 00:01:48;;;;;;;22.65;9.63;;;;;;;3.02;83.84;101785.94;5101681;28;20044;-63
2021/03/10 00:04:13;;;;;;;21.48;9.20;;;;;;;3.01;83.79;101787.63;5093214;28;20028;-67
2021/03/10 00:06:38;;;;;;;22.67;9.55;;;;;;;3.01;83.76;101789.38;5103740;28;20024;-66
2021/03/10 00:09:04;;;;;;;22.45;9.40;;;;;;;3.00;83.65;101791.09;5103453;28;20458;-63
2021/03/10 00:11:29;;;;;;;22.05;9.10;;;;;;;2.93;84.05;101791.59;5093046;28;20107;-65
2021/03/10 00:13:55;;;;;;;23.73;9.85;;;;;;;2.88;83.95;101796.56;5092813;28;20055;-62
2021/03/10 00:16:20;;;;;;;22.60;9.38;;;;;;;2.89;84.03;101805.31;5101654;28;20451;-65
2021/03/10 00:18:45;;;;;;;22.98;9.68;;;;;;;2.88;84.09;101812.22;5086003;28;20027;-61
2021/03/10 00:21:11;;;;;;;22.38;9.52;;;;;;;2.87;84.14;101805.25;5102236;28;20030;-61
2021/03/10 00:23:36;;;;;;;24.88;10.50;;;;;;;2.84;84.18;101809.38;5103151;28;20486;-62
2021/03/10 00:26:01;;;;;;;24.05;9.82;;;;;;;2.84;83.99;101814.63;5103543;28;20094;-61
2021/03/10 00:28:27;;;;;;;23.67;10.20;;;;;;;2.79;84.56;101811.78;5093449;28;20035;-63
2021/03/10 00:30:52;;;;;;;23.33;10.00;;;;;;;2.76;84.36;101812.50;5101329;28;20093;-61
2021/03/10 00:33:17;;;;;;;24.67;10.18;;;;;;;2.79;84.38;101811.78;5104515;28;20023;-61
2021/03/10 00:35:42;;;;;;;23.00;9.75;;;;;;;2.81;84.50;101796.19;5101861;28;20544;-61
2021/03/10 00:38:08;;;;;;;23.60;9.57;;;;;;;2.83;83.95;101791.94;5092526;28;20024;-62
2021/03/10 00:40:33;;;;;;;23.88;9.32;;;;;;;2.85;83.98;101790.31;5092553;28;20029;-60
2021/03/10 00:42:58;;;;;;;24.15;10.30;;;;;;;2.85;84.20;101791.19;5092778;28;20024;-61
2021/03/10 00:45:24;;;;;;;24.80;10.02;;;;;;;2.88;83.97;101782.63;5101314;28;20032;-61
2021/03/10 00:47:49;;;;;;;24.85;10.15;;;;;;;2.91;83.99;101785.38;5086413;28;20019;-62
2021/03/10 00:50:19;;;;;;;23.75;9.85;;;;;;;2.89;83.61;101787.03;5101518;28;20028;-61
2021/03/10 00:52:45;;;;;;;23.10;9.93;;;;;;;2.87;83.93;101792.19;5092425;28;20024;-61
2021/03/10 00:55:11;;;;;;;23.70;10.35;;;;;;;2.87;83.82;101800.00;5103741;28;20028;-62
2021/03/10 00:57:37;;;;;;;24.08;10.10;;;;;;;2.88;84.14;101795.69;5102437;28;20524;-69
2021/03/10 01:00:04;;;;;;;25.27;10.43;;;;;;;2.92;83.54;101805.47;5102015;28;20059;-70
2021/03/10 01:02:30;;;;;;;24.40;10.93;;;;;;;2.94;83.05;101802.13;5103222;28;20031;-65
2021/03/10 01:04:55;;;;;;;24.20;10.40;;;;;;;2.99;83.61;101794.50;5101481;28;20393;-70
2021/03/10 01:07:20;;;;;;;24.00;10.73;;;;;;;3.02;83.57;101793.78;5085820;28;20575;-70
2021/03/10 01:09:46;;;;;;;25.88;10.77;;;;;;;3.02;83.33;101786.81;5101004;28;20542;-66
2021/03/10 01:12:11;;;;;;;24.58;11.00;;;;;;;3.03;83.27;101785.09;5092641;28;20032;-67
2021/03/10 01:14:36;;;;;;;23.60;10.45;;;;;;;3.00;83.20;101779.72;5102898;28;20085;-66
2021/03/10 01:17:02;;;;;;;24.40;10.57;;;;;;;2.95;83.23;101772.53;5102980;28;20028;-70
2021/03/10 01:19:27;;;;;;;23.73;10.07;;;;;;;2.95;83.00;101776.88;5092208;28;20035;-69
2021/03/10 01:21:53;;;;;;;25.63;10.50;;;;;;;2.90;82.93;101774.03;5092272;28;20036;-67
2021/03/10 01:24:18;;;;;;;23.67;10.00;;;;;;;2.81;82.91;101773.59;5092415;28;20063;-67
2021/03/10 01:26:43;;;;;;;25.77;10.25;;;;;;;2.71;83.17;101772.22;5105125;28;20144;-67
2021/03/10 01:29:09;;;;;;;24.40;10.13;;;;;;;2.66;83.79;101772.78;5105846;28;20036;-69
2021/03/10 01:31:34;;;;;;;24.67;10.30;;;;;;;2.62;84.21;101761.28;5096542;28;20032;-66
2021/03/10 01:34:00;;;;;;;25.38;10.57;;;;;;;2.58;84.04;101756.75;5096267;28;20055;-68
2021/03/10 01:36:25;;;;;;;25.08;11.05;;;;;;;2.53;84.50;101763.44;5104781;28;20024;-67
2021/03/10 01:38:50;;;;;;;24.48;10.40;;;;;;;2.46;84.61;101764.81;5108427;28;20394;-67
2021/03/10 01:41:16;;;;;;;25.08;10.73;;;;;;;2.39;84.51;101762.72;5104387;28;20088;-69
2021/03/10 01:43:41;;;;;;;27.95;11.20;;;;;;;2.29;84.88;101766.56;5107295;28;20115;-70
2021/03/10 01:46:07;;;;;;;26.20;11.20;;;;;;;2.23;84.72;101766.25;5105914;28;20485;-69
2021/03/10 01:48:33;;;;;;;25.48;10.93;;;;;;;2.15;85.36;101768.44;5095798;28;20134;-68
2021/03/10 01:51:03;;;;;;;25.50;11.00;;;;;;;2.07;86.42;101762.81;5086316;28;20101;-68
2021/03/10 01:53:28;;;;;;;26.80;11.52;;;;;;;2.01;86.44;101754.66;5106898;28;20106;-67
2021/03/10 01:55:56;;;;;;;27.90;12.65;;;;;;;2.00;86.51;101758.06;5103966;28;20103;-70
2021/03/10 01:58:22;;;;;;;25.88;11.70;;;;;;;2.00;86.37;101760.69;5107772;28;20020;-70
2021/03/10 02:00:47;;;;;;;26.95;12.15;;;;;;;1.99;86.96;101760.59;5104152;28;20054;-71
2021/03/10 02:03:13;;;;;;;27.05;11.93;;;;;;;1.99;87.28;101756.28;5095658;28;20402;-69
2021/03/10 02:05:38;;;;;;;29.60;13.30;;;;;;;2.06;87.06;101754.91;5095632;28;20027;-71
2021/03/10 02:08:09;;;;;;;28.20;13.35;;;;;;;2.13;86.94;101762.25;5105335;28;20145;-69
2021/03/10 02:10:46;;;;;;;30.02;13.88;;;;;;;2.18;86.58;101754.66;5087278;28;20032;-69
2021/03/10 02:13:36;;;;;;;29.20;13.27;;;;;;;2.24;86.03;101757.56;5106631;28;20055;-70
2021/03/10 02:16:08;;;;;;;29.48;13.68;;;;;;;2.29;86.11;101756.13;5102542;28;20028;-70
2021/03/10 02:18:46;;;;;;;29.80;13.63;;;;;;;2.33;84.83;101752.88;5105583;28;20027;-70
2021/03/10 02:21:35;;;;;;;29.70;13.52;;;;;;;2.41;84.37;101750.66;5095369;28;20028;-70
2021/03/10 02:24:20;;;;;;;30.73;13.82;;;;;;;2.44;84.35;101738.63;5102177;28;20020;-70
2021/03/10 02:26:57;;;;;;;32.50;14.65;;;;;;;2.48;84.86;101736.22;5104324;28;20032;-71
2021/03/10 02:29:26;;;;;;;31.58;14.43;;;;;;;2.55;84.41;101738.28;5100238;28;20031;-68
2021/03/10 02:31:53;;;;;;;30.40;14.02;;;;;;;2.59;85.12;101732.41;5099910;28;20052;-69
2021/03/10 02:34:19;;;;;;;31.25;14.80;;;;;;;2.63;85.07;101730.88;5099122;28;20032;-70
2021/03/10 02:36:47;;;;;;;31.92;15.07;;;;;;;2.66;85.43;101728.41;5095137;28;20077;-68
2021/03/10 02:39:14;;;;;;;34.53;15.38;;;;;;;2.69;85.50;101721.63;5105824;28;20371;-69
2021/03/10 02:41:41;;;;;;;33.50;15.80;;;;;;;2.76;85.16;101728.06;5104394;28;20024;-69
2021/03/10 02:44:07;;;;;;;33.17;15.43;;;;;;;2.79;85.22;101725.59;5104875;28;20016;-67
2021/03/10 02:46:33;;;;;;;31.83;15.05;;;;;;;2.82;85.05;101732.69;5105248;28;20028;-67
2021/03/10 02:48:59;;;;;;;34.20;16.55;;;;;;;2.84;84.93;101731.03;5094779;28;20021;-70
2021/03/10 02:51:25;;;;;;;33.40;16.30;;;;;;;2.85;85.22;101727.63;5103578;28;20454;-70
2021/03/10 02:53:51;;;;;;;36.28;16.70;;;;;;;2.86;84.79;101734.66;5106524;28;20467;-71
2021/03/10 02:56:16;;;;;;;34.88;16.15;;;;;;;2.87;84.59;101720.75;5103129;28;20388;-71
2021/03/10 02:58:42;;;;;;;34.75;16.75;;;;;;;2.87;85.28;101721.66;5087289;28;20032;-69
2021/03/10 03:01:09;;;;;;;34.92;17.17;;;;;;;2.87;85.49;101720.75;5104007;28;20399;-71
2021/03/10 03:03:34;;;;;;;35.33;17.02;;;;;;;2.85;85.26;101720.66;5094553;28;20196;-71
2021/03/10 03:05:59;;;;;;;38.92;18.55;;;;;;;2.84;85.42;101718.91;5103860;28;20138;-71
2021/03/10 03:08:25;;;;;;;36.35;18.05;;;;;;;2.86;85.78;101714.63;5087291;28;20035;-70
2021/03/10 03:10:52;;;;;;;35.38;17.95;;;;;;;2.90;86.14;101713.09;5094132;28;20115;-70
2021/03/10 03:13:20;;;;;;;37.20;17.02;;;;;;;2.90;86.10;101710.47;5094234;28;20020;-70
2021/03/10 03:15:53;;;;;;;36.47;17.50;;;;;;;2.91;85.75;101712.25;5105395;28;20038;-71
2021/03/10 03:18:19;;;;;;;;;;;;;;;2.94;85.10;101707.16;5103116;28;20378;-70
2021/03/10 03:20:45;;;;;;;36.55;17.95;;;;;;;2.94;85.76;101707.16;5105494;28;19912;-70
2021/03/10 03:23:10;;;;;;;40.20;19.25;;;;;;;2.93;86.34;101701.06;5103500;28;20034;-71
2021/03/10 03:25:39;;;;;;;38.03;18.98;;;;;;;2.94;86.19;101686.28;5103940;28;20032;-70
2021/03/10 03:28:07;;;;;;;37.55;18.38;;;;;;;2.92;86.49;101693.16;5104327;28;20428;-68
2021/03/10 03:30:35;;;;;;;39.17;18.90;;;;;;;2.88;86.94;101685.97;5093977;28;20040;-71
2021/03/10 03:33:05;;;;;;;40.70;19.75;;;;;;;2.83;87.10;101688.38;5093699;28;20036;-70
2021/03/10 03:35:31;;;;;;;38.28;19.15;;;;;;;2.74;87.40;101683.59;5103431;28;20031;-70
2021/03/10 03:37:57;;;;;;;38.95;18.77;;;;;;;2.69;88.12;101677.22;5105207;28;20032;-70
2021/03/10 03:40:23;;;;;;;40.53;19.60;;;;;;;2.64;88.51;101688.28;5093867;28;20099;-70
2021/03/10 03:42:49;;;;;;;38.95;18.65;;;;;;;2.59;89.88;101685.41;5093591;28;20024;-71
2021/03/10 03:45:21;;;;;;;41.10;19.67;;;;;;;2.56;90.53;101670.53;5093339;28;20124;-70
2021/03/10 03:47:56;;;;;;;41.53;20.67;;;;;;;2.51;91.46;101677.22;5105160;28;20054;-71
2021/03/10 03:50:23;;;;;;;42.45;21.55;;;;;;;2.47;92.09;101676.97;5097398;28;20027;-68
2021/03/10 03:52:48;;;;;;;45.03;21.55;;;;;;;2.43;92.57;101678.53;5093468;28;20542;-70
2021/03/10 03:55:14;;;;;;;44.78;22.05;;;;;;;2.41;93.45;101682.78;5093530;28;20031;-70
2021/03/10 03:57:40;;;;;;;46.47;22.60;;;;;;;2.37;93.64;101673.88;5103691;28;20028;-70
2021/03/10 04:00:17;;;;;;;47.30;22.20;;;;;;;2.34;94.33;101681.56;5085297;28;20115;-71
2021/03/10 04:02:43;;;;;;;45.78;21.73;;;;;;;2.32;94.69;101669.28;5093331;28;20028;-71
2021/03/10 04:05:09;;;;;;;47.97;24.00;;;;;;;2.31;95.49;101676.19;5103862;28;20066;-71
2021/03/10 04:07:51;;;;;;;48.17;23.25;;;;;;;2.27;94.98;101671.63;5084690;28;20063;-71
2021/03/10 04:10:19;;;;;;;47.53;22.80;;;;;;;2.25;95.13;101678.50;5093152;28;20169;-71
2021/03/10 04:12:44;;;;;;;47.92;22.80;;;;;;;2.22;94.93;101671.41;5104238;28;20103;-71
2021/03/10 04:15:12;;;;;;;46.65;22.60;;;;;;;2.20;95.10;101677.34;5102949;28;20107;-71
2021/03/10 04:17:37;;;;;;;48.47;23.40;;;;;;;2.17;95.61;101667.69;5093417;28;20020;-71
2021/03/10 04:20:07;;;;;;;48.53;22.70;;;;;;;2.15;95.68;101668.41;5093157;28;20071;-71
2021/03/10 04:22:33;;;;;;;47.00;23.33;;;;;;;2.16;95.20;101678.91;5102448;28;20019;-71
2021/03/10 04:24:58;;;;;;;45.47;22.02;;;;;;;2.14;95.24;101672.72;5104293;28;20437;-71
2021/03/10 04:27:23;;;;;;;47.38;23.35;;;;;;;2.14;94.95;101671.81;5092814;28;20434;-71
2021/03/10 04:29:48;;;;;;;47.83;22.83;;;;;;;2.15;95.46;101676.22;5104895;28;20026;-71
2021/03/10 04:32:14;;;;;;;47.83;22.95;;;;;;;2.20;94.83;101672.13;5102094;28;20106;-71
2021/03/10 04:34:39;;;;;;;50.40;23.83;;;;;;;2.22;94.79;101676.63;5103202;28;20035;-71
2021/03/10 04:37:04;;;;;;;50.47;23.88;;;;;;;2.22;94.49;101670.50;5103213;28;20087;-71
2021/03/10 04:39:30;;;;;;;54.30;26.48;;;;;;;2.20;95.59;101665.22;5092871;28;20055;-61
2021/03/10 04:41:55;;;;;;;53.25;25.73;;;;;;;2.20;95.40;101674.72;5100938;28;20029;-62
2021/03/10 04:44:20;;;;;;;60.60;29.55;;;;;;;2.24;95.21;101682.84;5104408;28;20036;-61
2021/03/10 04:46:45;;;;;;;63.03;31.13;;;;;;;2.28;95.30;101681.25;5101691;28;20080;-61
2021/03/10 04:49:11;;;;;;;67.97;32.53;;;;;;;2.29;95.54;101688.28;5092702;28;20423;-61
2021/03/10 04:51:36;;;;;;;64.43;31.65;;;;;;;2.33;95.40;101682.41;5092640;28;20471;-62
2021/03/10 04:54:01;;;;;;;71.30;32.33;;;;;;;2.38;95.89;101682.63;5101825;28;20028;-62
2021/03/10 04:56:27;;;;;;;73.18;36.47;;;;;;;2.43;96.22;101687.28;5103895;28;20023;-63
2021/03/10 04:58:52;;;;;;;73.63;35.05;;;;;;;2.46;95.96;101677.78;5092861;28;20093;-62
2021/03/10 05:01:18;;;;;;;78.03;36.50;;;;;;;2.46;95.79;101672.56;5104713;28;20444;-64
2021/03/10 05:03:43;;;;;;;84.63;39.90;;;;;;;2.51;96.29;101677.22;5105988;28;20039;-63
2021/03/10 05:06:08;;;;;;;79.55;38.17;;;;;;;2.50;96.38;101674.53;5096972;28;20091;-64
2021/03/10 05:08:34;;;;;;;73.75;35.78;;;;;;;2.57;95.60;101663.56;5088050;28;20050;-61
2021/03/10 05:10:59;;;;;;;79.82;36.95;;;;;;;2.58;95.61;101670.59;5107792;28;20047;-62
2021/03/10 05:13:24;;;;;;;75.82;38.15;;;;;;;2.59;95.59;101664.53;5096398;28;20035;-61
2021/03/10 05:15:50;;;;;;;81.93;38.45;;;;;;;2.56;96.67;101661.78;5100933;28;20020;-62
2021/03/10 05:18:15;;;;;;;82.97;40.15;;;;;;;2.59;96.07;101668.06;5107614;28;20062;-63
2021/03/10 05:20:40;;;;;;;84.00;38.60;;;;;;;2.59;96.19;101665.44;5106502;28;20493;-70
2021/03/10 05:23:06;;;;;;;86.97;39.40;;;;;;;2.58;96.10;101670.59;5096157;28;20030;-68
2021/03/10 05:25:31;;;;;;;92.20;44.20;;;;;;;2.59;96.98;101668.06;5096425;28;20034;-69
2021/03/10 05:27:56;;;;;;;89.45;40.90;;;;;;;2.58;96.52;101673.22;5096052;28;20024;-70
2021/03/10 05:30:22;;;;;;;86.15;40.63;;;;;;;2.56;96.87;101667.00;5096197;28;20034;-68
2021/03/10 05:32:47;;;;;;;84.55;39.78;;;;;;;2.56;96.58;101661.78;5089514;28;20057;-71
2021/03/10 05:35:12;;;;;;;87.90;40.97;;;;;;;2.56;96.99;101659.16;5105375;28;20088;-70
2021/03/10 05:37:38;;;;;;;85.60;41.25;;;;;;;2.53;96.80;101656.41;5096038;28;20081;-70
2021/03/10 05:40:05;;;;;;;85.55;40.97;;;;;;;2.55;96.71;101654.75;5096167;28;20023;-70
2021/03/10 05:42:30;;;;;;;91.28;41.20;;;;;;;2.60;96.85;101653.28;5104770;28;20375;-70
2021/03/10 05:44:56;;;;;;;82.05;37.50;;;;;;;2.60;96.85;101653.28;5088982;28;20043;-70
2021/03/10 05:47:21;;;;;;;93.18;44.17;;;;;;;2.58;97.24;101654.94;5104544;28;20024;-70
2021/03/10 05:49:47;;;;;;;89.45;41.58;;;;;;;2.57;97.45;101664.47;5077539;28;20044;-71
2021/03/10 05:52:13;;;;;;;88.72;40.78;;;;;;;2.61;96.94;101660.31;5106537;28;20017;-68
2021/03/10 05:54:44;;;;;;;94.03;44.60;;;;;;;2.61;96.49;101669.03;5105822;28;20032;-68
2021/03/10 05:57:09;;;;;;;83.60;40.30;;;;;;;2.63;96.53;101669.09;5105952;28;20016;-70
2021/03/10 05:59:35;;;;;;;91.07;41.47;;;;;;;2.63;96.65;101669.09;5106337;28;20031;-71
2021/03/10 06:02:00;;;;;;;93.55;43.55;;;;;;;2.68;96.41;101671.94;5104578;28;20055;-71
2021/03/10 06:04:36;;;;;;;84.05;39.92;;;;;;;2.62;96.74;101677.72;5107364;28;20085;-71
2021/03/10 06:07:02;;;;;;;83.47;38.75;;;;;;;2.61;96.60;101673.34;5095509;28;20036;-71
2021/03/10 06:09:27;;;;;;;89.20;41.92;;;;;;;2.56;96.96;101678.34;5095729;28;20047;-71
2021/03/10 06:11:56;;;;;;;86.22;41.67;;;;;;;2.58;96.67;101681.94;5103205;28;20051;-71
2021/03/10 06:14:23;;;;;;;82.85;40.67;;;;;;;2.61;96.23;101673.34;5099479;28;20036;-71
2021/03/10 06:17:00;;;;;;;74.18;36.45;;;;;;;2.57;96.43;101667.06;5091762;28;20050;-72
2021/03/10 06:19:26;;;;;;;80.47;39.13;;;;;;;2.65;96.13;101666.56;5093296;28;20070;-71
2021/03/10 06:21:51;;;;;;;81.72;40.55;;;;;;;2.62;96.00;101664.69;5093444;28;20028;-69
2021/03/10 06:24:17;;;;;;;78.18;40.55;;;;;;;2.62;95.88;101662.06;5093854;28;20031;-68
2021/03/10 06:26:53;;;;;;;78.45;40.28;;;;;;;2.60;95.73;101664.59;5092537;28;20425;-70
2021/03/10 06:29:19;;;;;;;73.53;38.08;;;;;;;2.63;95.11;101663.00;5093189;28;20057;-68
2021/03/10 06:31:45;;;;;;;75.72;38.45;;;;;;;2.64;95.21;101656.97;5094254;28;20036;-63
2021/03/10 06:34:15;;;;;;;70.57;36.33;;;;;;;2.63;95.14;101658.66;5093807;28;20051;-77
2021/03/10 06:36:48;;;;;;;79.20;40.33;;;;;;;2.60;95.77;101646.34;5093857;28;20071;-63
2021/03/10 06:39:23;;;;;;;74.40;37.47;;;;;;;2.68;94.73;101646.75;5093013;28;20063;-65
2021/03/10 06:41:49;;;;;;;77.03;39.38;;;;;;;2.63;95.27;101647.31;5093725;28;20024;-64
2021/03/10 06:44:16;;;;;;;79.45;39.22;;;;;;;2.61;95.48;101645.53;5093969;28;20040;-63
2021/03/10 06:46:58;;;;;;;76.88;39.58;;;;;;;2.63;95.38;101643.00;5093180;28;20069;-63
2021/03/10 06:49:29;;;;;;;74.53;38.35;;;;;;;2.65;95.52;101640.44;5093109;28;20482;-63
2021/03/10 06:51:57;;;;;;;76.82;39.75;;;;;;;2.70;95.02;101637.25;5092728;28;20494;-67
2021/03/10 06:54:27;;;;;;;78.18;39.92;;;;;;;2.70;94.90;101632.03;5095381;28;20031;-63
2021/03/10 06:57:07;;;;;;;74.28;36.95;;;;;;;2.75;94.57;101641.00;5092542;28;20084;-63
2021/03/10 06:59:42;;;;;;;73.65;37.58;;;;;;;2.78;93.99;101646.38;5092445;28;20052;-64
2021/03/10 07:02:16;;;;;;;71.80;37.80;;;;;;;2.76;94.22;101639.25;5090130;28;20403;-63
2021/03/10 07:04:42;;;;;;;77.47;39.42;;;;;;;2.79;94.25;101648.13;5093838;28;20078;-63
2021/03/10 07:07:08;;;;;;;72.85;37.95;;;;;;;2.82;93.88;101655.22;5093423;28;20055;-64
2021/03/10 07:09:35;;;;;;;69.63;36.70;;;;;;;2.86;93.24;101643.22;5093807;28;20066;-65
2021/03/10 07:12:01;;;;;;;73.05;38.20;;;;;;;2.88;93.22;101644.19;5091994;28;20027;-63
2021/03/10 07:14:28;;;;;;;69.72;37.03;;;;;;;2.88;92.89;101639.84;5093258;28;20091;-66
2021/03/10 07:16:55;;;;;;;62.17;32.20;;;;;;;2.94;92.20;101644.47;5092716;28;20040;-64
2021/03/10 07:19:20;;;;;;;68.03;35.72;;;;;;;2.97;91.94;101637.69;5090571;28;20038;-63
2021/03/10 07:21:57;;;;;;;67.45;36.65;;;;;;;3.00;92.22;101643.88;5093678;28;20106;-64
2021/03/10 07:24:31;;;;;;;66.00;35.25;;;;;;;3.03;91.69;101657.09;5089889;28;20020;-63
2021/03/10 07:26:58;;;;;;;68.32;34.10;;;;;;;3.05;92.21;101658.97;5091835;28;20103;-63
2021/03/10 07:29:24;;;;;;;67.03;35.85;;;;;;;3.08;91.51;101663.44;5091528;28;20028;-63
2021/03/10 07:32:04;;;;;;;71.25;37.30;;;;;;;3.10;91.33;101660.09;5092603;28;20020;-66
2021/03/10 07:34:30;;;;;;;68.43;37.08;;;;;;;3.15;90.77;101665.53;5092045;28;20042;-65
2021/03/10 07:36:56;;;;;;;62.85;32.20;;;;;;;3.19;90.81;101662.25;5091935;28;20024;-63
2021/03/10 07:39:27;;;;;;;63.92;36.80;;;;;;;3.22;90.81;101651.00;5091966;28;20111;-64
2021/03/10 07:41:53;;;;;;;59.90;32.95;;;;;;;3.24;90.21;101655.50;5090618;28;20024;-66
2021/03/10 07:44:22;;;;;;;65.82;35.17;;;;;;;3.31;89.97;101656.69;5091638;28;20086;-64
2021/03/10 07:46:49;;;;;;;51.88;24.35;;;;;;;3.34;89.30;101656.84;5092720;28;20016;-63
2021/03/10 07:49:23;;;;;;;64.28;33.97;;;;;;;3.37;89.28;101651.75;5091914;28;20391;-64
2021/03/10 07:51:50;;;;;;;63.17;35.05;;;;;;;3.37;89.57;101656.97;5092998;28;20051;-67
2021/03/10 07:54:16;;;;;;;64.40;34.60;;;;;;;3.46;88.53;101660.00;5093065;28;20036;-65
2021/03/10 07:56:42;;;;;;;59.97;33.47;;;;;;;3.48;88.66;101658.38;5092065;28;20169;-65
2021/03/10 07:59:08;;;;;;;62.72;33.75;;;;;;;3.53;87.91;101652.47;5092417;28;20111;-63
2021/03/10 08:01:34;;;;;;;58.03;31.08;;;;;;;3.55;87.59;101651.69;5092866;28;20048;-64
2021/03/10 08:04:19;;;;;;;57.25;31.83;;;;;;;3.76;86.58;101664.84;5095471;28;20032;-66
2021/03/10 08:06:49;;;;;;;58.70;32.35;;;;;;;3.62;87.17;101663.34;5091270;28;20111;-63
2021/03/10 08:09:17;;;;;;;64.95;34.35;;;;;;;3.67;87.63;101659.22;5091988;28;20020;-63
2021/03/10 08:11:45;;;;;;;65.10;35.08;;;;;;;3.74;87.07;101661.28;5091523;28;20020;-65
2021/03/10 08:14:13;;;;;;;61.00;31.42;;;;;;;3.79;86.00;101651.91;5092718;28;20355;-63
2021/03/10 08:16:49;;;;;;;56.75;31.05;;;;;;;3.81;85.55;101657.22;5091461;28;20475;-63
2021/03/10 08:19:22;;;;;;;61.88;29.70;;;;;;;3.82;86.01;101657.28;5092706;28;20020;-62
2021/03/10 08:21:50;;;;;;;58.95;30.40;;;;;;;3.86;85.47;101660.94;5091460;28;20036;-63
2021/03/10 08:24:16;;;;;;;58.35;31.13;;;;;;;3.89;85.57;101662.78;5092117;28;20029;-63
2021/03/10 08:26:41;;;;;;;54.33;27.95;;;;;;;3.96;85.00;101657.91;5073168;28;20054;-63
2021/03/10 08:29:07;;;;;;;59.17;32.00;;;;;;;3.99;84.69;101655.44;5092248;28;20031;-63
2021/03/10 08:31:47;;;;;;;57.85;31.55;;;;;;;4.07;84.06;101645.28;5091885;28;20040;-63
2021/03/10 08:34:14;;;;;;;55.50;31.55;;;;;;;4.12;83.95;101662.09;5091252;28;20032;-63
2021/03/10 08:36:40;;;;;;;57.15;31.38;;;;;;;4.17;84.36;101650.09;5092836;28;20020;-66
2021/03/10 08:39:08;;;;;;;57.03;31.38;;;;;;;4.30;83.43;101653.25;5091040;28;20036;-71
2021/03/10 08:41:49;;;;;;;59.80;31.58;;;;;;;4.36;83.65;101654.38;5095434;28;20016;-67
2021/03/10 08:44:15;;;;;;;57.45;30.33;;;;;;;4.46;82.54;101647.81;5091570;28;20535;-65
2021/03/10 08:46:42;;;;;;;54.63;28.25;;;;;;;4.52;82.37;101650.69;5093177;28;20115;-65
2021/03/10 08:49:31;;;;;;;53.22;27.52;;;;;;;4.59;82.32;101645.69;5090323;28;20027;-65
2021/03/10 08:52:14;;;;;;;53.40;29.92;;;;;;;4.61;81.54;101644.94;5091595;28;20107;-66
2021/03/10 08:54:44;;;;;;;;;;;;;;;4.75;81.78;101647.22;5089832;28;20034;-66
2021/03/10 08:57:09;;;;;;;58.78;30.77;;;;;;;4.87;81.60;101647.75;5093831;28;20386;-64
2021/03/10 08:59:36;;;;;;;56.03;30.55;;;;;;;4.98;80.95;101637.69;5091227;28;20016;-65
2021/03/10 09:02:02;;;;;;;54.28;30.23;;;;;;;5.03;80.64;101628.28;5091208;28;20044;-63
2021/03/10 09:04:28;;;;;;;55.72;29.83;;;;;;;5.09;80.08;101639.00;5091239;28;20042;-66
2021/03/10 09:06:58;;;;;;;52.90;29.83;;;;;;;5.19;80.13;101641.16;5073757;28;20036;-64
2021/03/10 09:09:25;;;;;;;55.00;27.17;;;;;;;5.26;79.06;101638.75;5092284;28;20035;-64
2021/03/10 09:11:53;;;;;;;49.90;28.65;;;;;;;5.30;79.41;101640.66;5091774;28;20028;-66
2021/03/10 09:14:18;;;;;;;51.35;29.13;;;;;;;5.36;78.65;101639.19;5091784;28;20036;-63
2021/03/10 09:16:55;;;;;;;51.70;28.70;;;;;;;5.45;78.97;101635.16;5090033;28;20463;-63
2021/03/10 09:19:32;;;;;;;55.55;31.45;;;;;;;5.46;78.71;101632.59;5090150;28;20093;-63
2021/03/10 09:22:06;;;;;;;53.30;28.80;;;;;;;5.57;78.46;101627.72;5092026;28;20482;-66
2021/03/10 09:24:32;;;;;;;51.03;27.90;;;;;;;5.54;77.41;101625.88;5091647;28;20032;-68
2021/03/10 09:26:57;;;;;;;52.22;30.20;;;;;;;5.54;78.35;101615.38;5090478;28;20031;-67
2021/03/10 09:29:23;;;;;;;50.38;28.35;;;;;;;5.56;76.57;101613.72;5091564;28;20531;-64
2021/03/10 09:31:55;;;;;;;50.10;29.67;;;;;;;5.62;77.76;101612.16;5090296;28;20034;-64
2021/03/10 09:34:20;;;;;;;49.78;27.95;;;;;;;5.56;77.02;101607.56;5090442;28;20032;-67
2021/03/10 09:36:46;;;;;;;51.30;29.70;;;;;;;5.61;77.27;101607.72;5087958;28;20026;-66
2021/03/10 09:39:14;;;;;;;52.50;30.10;;;;;;;5.65;76.61;101599.13;5087431;28;20020;-65
2021/03/10 09:41:46;;;;;;;51.80;30.40;;;;;;;5.65;76.80;101600.06;5090898;28;20467;-65
2021/03/10 09:44:12;;;;;;;50.60;30.03;;;;;;;5.63;76.83;101595.59;5090603;28;20024;-66
2021/03/10 09:46:42;;;;;;;52.83;31.42;;;;;;;5.67;76.18;101597.50;5073168;28;20335;-64
2021/03/10 09:49:07;;;;;;;48.90;27.73;;;;;;;5.62;76.05;101588.53;5093673;28;20044;-64
2021/03/10 09:51:33;;;;;;;51.17;30.38;;;;;;;5.64;76.47;101589.50;5094315;28;20059;-65
2021/03/10 09:53:59;;;;;;;49.63;29.15;;;;;;;5.70;75.94;101597.59;5095145;28;20024;-65
2021/03/10 09:56:25;;;;;;;49.72;27.70;;;;;;;5.76;75.31;101590.81;5094485;28;20032;-64
2021/03/10 09:58:56;;;;;;;45.03;25.27;;;;;;;5.79;74.97;101590.03;5093724;28;20137;-67
2021/03/10 10:01:23;;;;;;;45.78;24.23;;;;;;;5.80;74.69;101599.72;5077369;28;20051;-64
2021/03/10 10:03:49;;;;;;;49.03;27.75;;;;;;;5.84;74.50;101578.00;5094005;28;20382;-65
2021/03/10 10:06:17;;;;;;;48.88;26.77;;;;;;;5.93;74.15;101578.31;5093894;28;20031;-65
2021/03/10 10:08:43;;;;;;;45.15;25.58;;;;;;;6.02;73.19;101571.63;5093665;28;20024;-65
2021/03/10 10:11:10;;;;;;;46.03;23.60;;;;;;;6.15;71.79;101572.97;5092557;28;20031;-64
2021/03/10 10:13:35;;;;;;;47.23;26.30;;;;;;;6.24;72.29;101563.63;5093705;28;20148;-64
2021/03/10 10:16:01;;;;;;;44.20;25.33;;;;;;;6.33;72.11;101568.28;5096311;28;20071;-63
2021/03/10 10:18:26;;;;;;;42.50;23.58;;;;;;;6.46;70.78;101569.59;5094870;28;20097;-63
2021/03/10 10:20:52;;;;;;;40.78;21.98;;;;;;;6.54;71.07;101569.84;5094955;28;20173;-64
2021/03/10 10:23:18;;;;;;;39.90;23.20;;;;;;;6.63;69.41;101562.28;5075364;28;20145;-69
2021/03/10 10:25:44;;;;;;;40.65;22.63;;;;;;;6.75;68.97;101562.66;5074430;28;20034;-64
2021/03/10 10:28:09;;;;;;;37.92;19.38;;;;;;;6.98;67.18;101554.59;5094886;28;20449;-65
2021/03/10 10:30:35;;;;;;;35.20;17.27;;;;;;;7.04;65.63;101565.28;5093648;28;20073;-65
2021/03/10 10:33:00;;;;;;;33.83;16.63;;;;;;;7.10;64.97;101564.59;5094898;28;20479;-64
2021/03/10 10:35:25;;;;;;;39.53;20.27;;;;;;;7.25;65.73;101553.63;5093342;28;20023;-64
2021/03/10 10:37:51;;;;;;;34.55;16.52;;;;;;;7.36;63.49;101553.94;5093393;28;20047;-67
2021/03/10 10:40:18;;;;;;;35.80;16.95;;;;;;;7.40;63.37;101550.56;5095241;28;20020;-64
2021/03/10 10:42:48;;;;;;;34.28;17.60;;;;;;;7.61;63.99;101560.78;5093013;28;20020;-63
2021/03/10 10:45:15;;;;;;;34.40;17.35;;;;;;;7.90;62.35;101550.16;5094609;28;20020;-64
2021/03/10 10:47:41;;;;;;;32.83;17.23;;;;;;;8.13;61.65;101549.03;5092875;28;20028;-65
2021/03/10 10:50:07;;;;;;;34.15;17.70;;;;;;;8.18;61.25;101550.03;5094112;28;20352;-63
2021/03/10 10:52:33;;;;;;;32.75;16.70;;;;;;;8.11;61.08;101541.94;5094002;28;20034;-64
2021/03/10 10:55:00;;;;;;;33.35;17.70;;;;;;;7.99;59.95;101545.13;5093745;28;20028;-65
2021/03/10 10:57:25;;;;;;;30.17;14.63;;;;;;;7.99;60.09;101535.50;5074174;28;20063;-65
2021/03/10 10:59:51;;;;;;;32.53;17.08;;;;;;;7.94;60.47;101509.91;5093919;28;20047;-62
2021/03/10 11:02:16;;;;;;;30.17;14.02;;;;;;;7.93;60.09;101510.75;5092639;28;20059;-63
2021/03/10 11:04:42;;;;;;;28.73;13.35;;;;;;;7.92;60.00;101507.25;5091517;28;20471;-67
2021/03/10 11:07:07;;;;;;;32.00;15.18;;;;;;;7.87;59.62;101513.25;5077146;28;20066;-64
2021/03/10 11:09:42;;;;;;;30.40;15.88;;;;;;;7.82;59.88;101516.63;5093042;28;20031;-71
2021/03/10 11:12:11;;;;;;;32.40;16.40;;;;;;;7.81;59.73;101519.22;5094225;28;20024;-72
2021/03/10 11:14:37;;;;;;;32.60;15.27;;;;;;;7.93;60.22;101508.13;5093945;28;20028;-72
2021/03/10 11:17:03;;;;;;;30.17;14.82;;;;;;;8.01;59.63;101502.19;5092429;28;20066;-71
2021/03/10 11:19:28;;;;;;;31.75;15.88;;;;;;;8.06;59.22;101498.81;5092376;28;20056;-72
2021/03/10 11:21:54;;;;;;;31.13;16.77;;;;;;;8.01;59.81;101501.31;5093745;28;21156;-71